createdAt,value
2019-04-03T04:03:53.233Z,64.294434
2019-04-03T04:07:21.077Z,64.599609
2019-04-03T04:10:49.021Z,64.703369
2019-04-03T04:14:22.427Z,65.118408
2019-04-03T04:17:51.508Z,65.631104
2019-04-03T04:21:19.373Z,65.936279
2019-04-03T04:24:47.191Z,66.143799
2019-04-03T04:28:15.042Z,66.790771
2019-04-03T04:31:44.449Z,66.278076
2019-04-03T04:35:12.612Z,66.790771
2019-04-03T04:38:41.441Z,66.381836
2019-04-03T04:42:09.276Z,66.448975
2019-04-03T04:45:37.101Z,66.345215
2019-04-03T04:49:06.927Z,66.247559
2019-04-03T04:52:34.796Z,65.734863
2019-04-03T04:56:02.618Z,66.040039
2019-04-03T04:59:32.425Z,65.936279
2019-04-03T05:03:03.228Z,65.600586
2019-04-03T05:06:31.056Z,66.625977
2019-04-03T05:09:59.119Z,68.267822
2019-04-03T05:13:28.699Z,69.500732
2019-04-03T05:16:56.766Z,69.396973
2019-04-03T05:20:24.394Z,68.676758
2019-04-03T05:23:52.220Z,68.267822
2019-04-03T05:27:25.000Z,68.64624
2019-04-03T05:30:53.831Z,69.055176
2019-04-03T05:34:21.647Z,69.567871
2019-04-03T05:37:50.827Z,68.029785
2019-04-03T05:41:19.346Z,68.341064
2019-04-03T05:44:48.097Z,68.206787
2019-04-03T05:48:18.212Z,67.382812
2019-04-03T05:51:45.832Z,67.486572
2019-04-03T05:55:13.561Z,66.253662
2019-04-03T05:58:53.697Z,66.430664
2019-04-03T06:02:19.890Z,66.119385
2019-04-03T06:05:46.958Z,66.601562
2019-04-03T06:09:14.818Z,67.425537
2019-04-03T06:12:46.122Z,68.035889
2019-04-03T06:16:16.162Z,67.1875
2019-04-03T06:19:44.262Z,66.369629
2019-04-03T06:23:12.119Z,65.551758
2019-04-03T06:26:39.899Z,65.551758
2019-04-03T06:30:09.706Z,64.904785
2019-04-03T06:33:37.825Z,64.569092
2019-04-03T06:37:05.428Z,63.848877
2019-04-03T06:40:35.431Z,63.439941
2019-04-03T06:44:03.052Z,63.031006
2019-04-03T06:47:32.488Z,63.513184
2019-04-03T06:51:00.716Z,63.952637
2019-04-03T06:54:30.980Z,63.647461
2019-04-03T06:57:58.532Z,64.874268
2019-04-03T07:01:27.311Z,64.025879
2019-04-03T07:04:54.995Z,63.952637
2019-04-03T07:08:30.865Z,64.056396
2019-04-03T07:11:59.550Z,63.000488
2019-04-03T07:15:27.371Z,63.238525
2019-04-03T07:18:55.195Z,62.902832
2019-04-03T07:22:23.021Z,64.227295
2019-04-03T07:25:52.835Z,63.409424
2019-04-03T07:29:24.525Z,63.793945
2019-04-03T07:32:51.456Z,63.38501
2019-04-03T07:36:21.299Z,62.634277
2019-04-03T07:39:50.519Z,62.432861
2019-04-03T07:43:18.944Z,62.609863
2019-04-03T07:46:48.954Z,61.047363
2019-04-03T07:50:19.927Z,61.352539
2019-04-03T07:53:48.814Z,62.042236
2019-04-03T07:57:17.467Z,61.016846
2019-04-03T08:00:45.302Z,61.090088
2019-04-03T08:04:15.740Z,59.869385
2019-04-03T08:07:43.960Z,59.533691
2019-04-03T08:11:14.377Z,59.0271
2019-04-03T08:14:42.897Z,59.429932
2019-04-03T08:18:10.707Z,58.795166
2019-04-03T08:21:39.209Z,58.972168
2019-04-03T08:25:08.662Z,58.355713
2019-04-03T08:28:37.851Z,58.154297
2019-04-03T08:32:06.029Z,58.227539
2019-04-03T08:35:35.439Z,58.709717
2019-04-03T08:39:03.322Z,57.666016
2019-04-03T08:42:32.907Z,57.946777
2019-04-03T08:45:59.983Z,57.232666
2019-04-03T08:49:27.801Z,57.03125
2019-04-03T08:52:55.634Z,57.434082
2019-04-03T08:56:23.486Z,57.739258
2019-04-03T08:59:51.289Z,57.208252
2019-04-03T09:03:20.119Z,57.37915
2019-04-03T09:06:47.974Z,56.774902
2019-04-03T09:10:19.046Z,57.48291
2019-04-03T09:13:46.652Z,56.262207
2019-04-03T09:17:15.563Z,57.37915
2019-04-03T09:20:44.554Z,56.976318
2019-04-03T09:24:12.112Z,57.080078
2019-04-03T09:27:41.286Z,57.763672
2019-04-03T09:31:08.895Z,55.603027
2019-04-03T09:34:36.626Z,55.755615
2019-04-03T09:38:04.452Z,55.01709
2019-04-03T09:41:34.252Z,55.218506
2019-04-03T09:45:02.074Z,53.625488
2019-04-03T09:48:29.929Z,54.943848
2019-04-03T09:51:59.750Z,54.309082
2019-04-03T09:55:27.574Z,53.674316
2019-04-03T09:59:00.426Z,53.57666
2019-04-03T10:02:31.146Z,53.674316
2019-04-03T10:06:00.711Z,54.510498
2019-04-03T10:09:27.814Z,53.369141
2019-04-03T10:12:55.651Z,54.589844
2019-04-03T10:16:23.467Z,53.930664
2019-04-03T10:19:51.292Z,52.813721
2019-04-03T10:23:19.119Z,54.229736
2019-04-03T10:26:48.054Z,53.851318
2019-04-03T10:30:20.146Z,52.288818
2019-04-03T10:33:47.201Z,52.514648
2019-04-03T10:37:16.083Z,52.868652
2019-04-03T10:40:43.840Z,50.274658
2019-04-03T10:44:11.842Z,47.540283
2019-04-03T10:47:43.532Z,46.594238
2019-04-03T10:51:10.708Z,46.948242
2019-04-03T10:54:39.312Z,45.623779
2019-04-03T10:58:09.164Z,45.019531
2019-04-03T11:01:36.786Z,43.95752
2019-04-03T11:05:06.233Z,42.736816
2019-04-03T11:08:34.070Z,42.553711
2019-04-03T11:12:03.222Z,41.394043
2019-04-03T11:15:33.034Z,40.612793
2019-04-03T11:19:04.953Z,43.395996
2019-04-03T11:22:40.203Z,41.07666
2019-04-03T11:26:07.543Z,40.95459
2019-04-03T11:29:35.434Z,40.100098
2019-04-03T11:33:05.221Z,37.866211
2019-04-03T11:36:35.052Z,39.300537
2019-04-03T11:40:05.477Z,40.393066
2019-04-03T11:43:32.783Z,41.314697
2019-04-03T11:47:00.647Z,40.655518
2019-04-03T11:50:28.731Z,40.2771
2019-04-03T11:53:56.520Z,41.394043
2019-04-03T11:57:26.687Z,41.61377
2019-04-03T12:00:53.194Z,41.235352
2019-04-03T12:04:21.694Z,43.695068
2019-04-03T12:07:49.513Z,41.394043
2019-04-03T12:11:19.702Z,41.772461
2019-04-03T12:14:49.602Z,42.596436
2019-04-03T12:18:18.605Z,42.156982
2019-04-03T12:21:48.282Z,43.054199
2019-04-03T12:25:16.266Z,42.156982
2019-04-03T12:28:44.193Z,42.694092
2019-04-03T12:32:15.039Z,42.175293
2019-04-03T12:35:44.004Z,42.596436
2019-04-03T12:39:11.629Z,42.694092
2019-04-03T12:42:39.509Z,41.674805
2019-04-03T12:46:07.425Z,42.41333
2019-04-03T12:49:35.255Z,42.5354
2019-04-03T12:53:03.238Z,41.430664
2019-04-03T12:56:32.406Z,42.633057
2019-04-03T12:59:59.976Z,43.017578
2019-04-03T13:03:27.895Z,43.341064
2019-04-03T13:06:58.847Z,42.437744
2019-04-03T13:10:39.732Z,42.132568
2019-04-03T13:14:04.881Z,42.41333
2019-04-03T13:17:33.640Z,43.481445
2019-04-03T13:21:01.615Z,44.122314
2019-04-03T13:24:32.430Z,43.518066
2019-04-03T13:28:03.544Z,44.244385
2019-04-03T13:31:31.527Z,44.909668
2019-04-03T13:35:00.409Z,44.42749
2019-04-03T13:38:30.353Z,43.743896
2019-04-03T13:41:58.393Z,44.287109
2019-04-03T13:45:26.108Z,44.689941
2019-04-03T13:48:56.021Z,44.891357
2019-04-03T13:52:23.803Z,44.873047
2019-04-03T13:55:56.708Z,45.19043
2019-04-03T13:59:26.682Z,44.995117
2019-04-03T14:02:57.170Z,44.445801
2019-04-03T14:06:24.180Z,44.32373
2019-04-03T14:09:55.126Z,44.726562
2019-04-03T14:13:21.839Z,44.970703
2019-04-03T14:16:49.800Z,45.697021
2019-04-03T14:20:17.671Z,46.64917
2019-04-03T14:23:47.454Z,46.569824
2019-04-03T14:27:21.782Z,47.576904
2019-04-03T14:30:50.053Z,47.955322
2019-04-03T14:34:17.923Z,47.979736
2019-04-03T14:37:45.775Z,47.77832
2019-04-03T14:41:13.703Z,47.271729
2019-04-03T14:44:46.058Z,47.253418
2019-04-03T14:48:13.353Z,45.996094
2019-04-03T14:51:43.445Z,45.898438
2019-04-03T14:55:18.829Z,46.380615
2019-04-03T14:58:46.048Z,49.798584
2019-04-03T15:02:13.696Z,50.073242
2019-04-03T15:05:44.498Z,51.812744
2019-04-03T15:09:13.643Z,51.104736
2019-04-03T15:12:42.290Z,52.618408
2019-04-03T15:16:09.996Z,50.32959
2019-04-03T15:19:38.040Z,51.361084
2019-04-03T15:23:07.587Z,51.45874
2019-04-03T15:26:35.433Z,50.506592
2019-04-03T15:30:03.236Z,49.597168
2019-04-03T15:33:34.128Z,51.861572
2019-04-03T15:37:03.092Z,52.490234
2019-04-03T15:40:34.170Z,49.951172
2019-04-03T15:44:01.513Z,48.138428
2019-04-03T15:47:36.431Z,50.018311
2019-04-03T15:51:06.212Z,47.53418
2019-04-03T15:54:34.913Z,46.759033
2019-04-03T15:58:02.816Z,49.145508
2019-04-03T16:01:31.061Z,49.310303
2019-04-03T16:05:00.696Z,51.202393
2019-04-03T16:08:28.702Z,52.966309
2019-04-03T16:11:56.226Z,53.80249
2019-04-03T16:15:28.952Z,53.723145
2019-04-03T16:18:57.258Z,54.437256
2019-04-03T16:22:24.805Z,55.267334
2019-04-03T16:25:55.596Z,54.79126
2019-04-03T16:29:23.437Z,54.284668
2019-04-03T16:32:53.137Z,55.627441
2019-04-03T16:36:25.911Z,55.627441
2019-04-03T16:39:53.739Z,56.842041
2019-04-03T16:43:23.421Z,56.262207
2019-04-03T16:46:51.405Z,55.651855
2019-04-03T16:50:19.234Z,55.67627
2019-04-03T16:53:50.027Z,56.182861
2019-04-03T16:57:21.058Z,55.578613
2019-04-03T17:00:47.709Z,56.488037
2019-04-03T17:04:24.548Z,56.311035
2019-04-03T17:07:54.135Z,56.011963
2019-04-03T17:11:21.588Z,55.804443
2019-04-03T17:14:49.356Z,56.518555
2019-04-03T17:18:19.417Z,56.109619
2019-04-03T17:27:00.426Z,60.357666
2019-04-03T17:30:29.907Z,61.401367
2019-04-03T17:33:58.880Z,62.652588
2019-04-03T17:37:30.948Z,63.262939
2019-04-03T17:41:00.900Z,64.4104
2019-04-03T17:44:30.995Z,65.155029
2019-04-03T17:48:01.214Z,64.776611
2019-04-03T17:51:33.546Z,64.16626
2019-04-03T17:55:03.367Z,63.757324
2019-04-03T17:58:34.255Z,64.0625
2019-04-03T18:02:04.210Z,64.471436
2019-04-03T18:05:34.159Z,65.216064
2019-04-03T18:09:05.215Z,66.162109
2019-04-03T18:12:35.062Z,66.876221
2019-04-03T18:16:05.979Z,67.211914
2019-04-03T18:19:37.973Z,67.62085
2019-04-03T18:23:10.697Z,67.041016
2019-04-03T18:26:44.847Z,67.242432
2019-04-03T18:30:13.340Z,67.578125
2019-04-03T18:33:43.465Z,67.272949
2019-04-03T18:37:14.412Z,67.376709
2019-04-03T18:40:46.266Z,67.785645
2019-04-03T18:44:22.238Z,67.712402
2019-04-03T18:47:52.181Z,67.712402
2019-04-03T18:51:22.247Z,67.816162
2019-04-03T18:54:52.121Z,67.712402
2019-04-03T18:58:23.801Z,68.023682
2019-04-03T19:01:53.928Z,68.566895
2019-04-03T19:05:24.807Z,68.768311
2019-04-03T19:08:54.707Z,69.006348
2019-04-03T19:12:35.220Z,69.311523
2019-04-03T19:16:02.298Z,69.720459
2019-04-03T19:19:31.500Z,70.880127
2019-04-03T19:23:03.549Z,71.185303
2019-04-03T19:26:35.246Z,71.185303
2019-04-03T19:30:07.034Z,71.386719
2019-04-03T19:33:36.932Z,70.776367
2019-04-03T19:37:07.866Z,69.720459
2019-04-03T19:40:40.250Z,69.616699
2019-04-03T19:44:09.712Z,69.927979
2019-04-03T19:47:40.591Z,69.586182
2019-04-03T19:51:12.507Z,68.566895
2019-04-03T19:54:42.439Z,67.614746
2019-04-03T19:58:13.341Z,66.149902
2019-04-03T20:01:43.242Z,66.149902
2019-04-03T20:05:14.196Z,66.28418
2019-04-03T20:08:46.028Z,66.082764
2019-04-03T20:12:15.975Z,65.844727
2019-04-03T20:15:45.867Z,65.844727
2019-04-03T20:19:16.766Z,65.570068
2019-04-03T20:22:47.719Z,65.466309
2019-04-03T20:26:17.613Z,65.368652
2019-04-03T20:29:47.572Z,65.368652
2019-04-03T20:33:17.492Z,65.771484
2019-04-03T20:36:50.641Z,65.979004
2019-04-03T20:40:20.289Z,65.771484
2019-04-03T20:43:50.231Z,65.771484
2019-04-03T20:47:20.122Z,66.28418
2019-04-03T20:50:50.053Z,66.418457
2019-04-03T20:54:21.256Z,66.113281
2019-04-03T20:57:55.636Z,66.210938
2019-04-03T21:01:23.921Z,66.113281
2019-04-03T21:04:53.927Z,66.619873
2019-04-03T21:08:26.599Z,66.656494
2019-04-03T21:11:57.737Z,66.522217
2019-04-03T21:15:27.653Z,66.656494
2019-04-03T21:18:57.587Z,66.656494
2019-04-03T21:22:30.224Z,66.75415
2019-04-03T21:25:59.424Z,67.297363
2019-04-03T21:29:29.357Z,68.322754
2019-04-03T21:33:00.494Z,68.933105
2019-04-03T21:36:30.232Z,70.501709
2019-04-03T21:40:04.807Z,71.356201
2019-04-03T21:43:35.030Z,71.899414
2019-04-03T21:47:04.905Z,71.899414
2019-04-03T21:50:34.810Z,72.106934
2019-04-03T21:54:04.738Z,72.546387
2019-04-03T21:57:37.418Z,72.857666
